Time;durP1;ratioP1;P1;durP2;ratioP2;P2;SDS_P1;SDS_P2;PMS_P1;PMS_P2;Temp;Humidity;BMP_temperature;BMP_pressure;BME280_temperature;BME280_humidity;BME280_pressure;Samples;Min_cycle;Max_cycle;Signal;HPM_P1;HPM_P2
2022/06/21 00:00:56;;;;;;;7.55;2.25;;;13.30;99.90;;;;;;5040912;28;20045;-70
2022/06/21 00:03:25;;;;;;;6.47;1.58;;;13.30;99.90;;;;;;5043919;28;20044;-70
2022/06/21 00:05:52;;;;;;;4.15;1.55;;;13.30;99.90;;;;;;5037215;28;20447;-70
2022/06/21 00:08:25;;;;;;;4.47;1.60;;;13.30;99.90;;;;;;5041912;28;20044;-70
2022/06/21 00:10:52;;;;;;;4.65;1.83;;;13.30;99.90;;;;;;5039689;28;20045;-70
2022/06/21 00:13:24;;;;;;;3.95;1.52;;;13.30;99.90;;;;;;5044430;28;20059;-70
2022/06/21 00:16:00;;;;;;;2.80;1.55;;;13.30;99.90;;;;;;5045947;28;20068;-70
2022/06/21 00:18:28;;;;;;;4.40;1.60;;;13.30;99.90;;;;;;5041404;28;20044;-70
2022/06/21 00:20:54;;;;;;;6.18;2.75;;;13.30;99.90;;;;;;5045242;28;20057;-71
2022/06/21 00:23:28;;;;;;;4.88;1.70;;;13.30;99.90;;;;;;5047600;28;20037;-70
2022/06/21 00:25:54;;;;;;;5.20;1.67;;;13.30;99.90;;;;;;5040148;28;20041;-71
2022/06/21 00:28:20;;;;;;;2.85;1.50;;;13.20;99.90;;;;;;5044663;28;20393;-70
2022/06/21 00:30:47;;;;;;;3.15;1.52;;;13.20;99.90;;;;;;5037701;28;20493;-70
2022/06/21 00:33:16;;;;;;;5.22;1.90;;;13.10;99.90;;;;;;5048218;28;20123;-73
2022/06/21 00:35:44;;;;;;;6.40;2.03;;;13.10;99.90;;;;;;5033823;28;20041;-70
2022/06/21 00:38:26;;;;;;;5.22;1.95;;;13.10;99.90;;;;;;5040105;28;20497;-70
2022/06/21 00:40:53;;;;;;;5.13;2.00;;;13.00;99.90;;;;;;5046142;28;20528;-70
2022/06/21 00:43:22;;;;;;;5.30;1.92;;;13.00;99.90;;;;;;5045188;28;20044;-70
2022/06/21 00:45:50;;;;;;;5.88;2.40;;;13.00;99.90;;;;;;5041753;28;20055;-70
2022/06/21 00:48:26;;;;;;;5.95;2.20;;;13.00;99.90;;;;;;5037765;28;20071;-70
2022/06/21 00:50:56;;;;;;;6.63;2.88;;;13.00;99.90;;;;;;5042447;28;20064;-70
2022/06/21 00:53:36;;;;;;;5.25;2.50;;;12.90;99.90;;;;;;5042464;28;20106;-70
2022/06/21 00:56:13;;;;;;;7.32;1.70;;;13.00;99.90;;;;;;5044785;28;20110;-70
2022/06/21 00:58:39;;;;;;;4.85;2.10;;;12.90;99.90;;;;;;5047288;28;20052;-69
2022/06/21 01:01:13;;;;;;;4.00;2.20;;;13.00;99.90;;;;;;5044109;28;20408;-70
2022/06/21 01:03:43;;;;;;;5.25;2.45;;;12.90;99.90;;;;;;5039771;28;20280;-70
2022/06/21 01:06:16;;;;;;;5.93;2.35;;;12.90;99.90;;;;;;5039448;28;20036;-70
2022/06/21 01:08:48;;;;;;;5.07;2.17;;;12.90;99.90;;;;;;5043861;28;20120;-70
2022/06/21 01:11:20;;;;;;;7.30;2.50;;;12.80;99.90;;;;;;5041053;28;20048;-74
2022/06/21 01:13:50;;;;;;;5.68;2.10;;;12.80;99.90;;;;;;5049049;28;20052;-70
2022/06/21 01:16:17;;;;;;;3.83;2.08;;;12.80;99.90;;;;;;5048291;28;20037;-70
2022/06/21 01:18:44;;;;;;;4.10;2.10;;;12.70;99.90;;;;;;5044398;28;20361;-70
2022/06/21 01:21:13;;;;;;;4.65;1.98;;;12.60;99.90;;;;;;5043741;28;20041;-70
2022/06/21 01:24:07;;;;;;;3.72;1.85;;;12.50;99.90;;;;;;5051442;28;20617;-70
2022/06/21 01:26:51;;;;;;;5.40;1.90;;;12.50;99.90;;;;;;5047099;28;20555;-69
2022/06/21 01:29:19;;;;;;;5.05;2.33;;;12.50;99.90;;;;;;5041034;28;20456;-70
2022/06/21 01:31:47;;;;;;;3.30;1.92;;;12.40;99.90;;;;;;5045085;28;20052;-70
2022/06/21 01:34:18;;;;;;;3.78;2.13;;;12.30;99.90;;;;;;5044023;28;20073;-70
2022/06/21 01:36:50;;;;;;;5.53;2.22;;;12.30;99.90;;;;;;5040782;28;20537;-71
2022/06/21 01:39:22;;;;;;;5.20;2.20;;;12.30;99.90;;;;;;5040944;28;20040;-69
2022/06/21 01:42:10;;;;;;;4.68;1.80;;;12.20;99.90;;;;;;5047890;28;20063;-70
2022/06/21 01:44:41;;;;;;;4.60;1.75;;;12.20;99.90;;;;;;5025800;28;20053;-70
2022/06/21 01:47:11;;;;;;;5.75;2.00;;;12.10;99.90;;;;;;5049207;28;20032;-70
2022/06/21 01:49:43;;;;;;;3.70;1.73;;;12.10;99.90;;;;;;5044689;28;20033;-69
2022/06/21 01:52:20;;;;;;;9.52;1.85;;;12.10;99.90;;;;;;5050509;28;20099;-71
2022/06/21 01:54:59;;;;;;;7.20;2.13;;;12.00;99.90;;;;;;5042624;28;20045;-70
2022/06/21 01:57:27;;;;;;;3.83;1.60;;;12.00;99.90;;;;;;5042007;28;20040;-70
2022/06/21 01:59:53;;;;;;;2.25;1.55;;;12.00;99.90;;;;;;5050276;28;20037;-70
2022/06/21 02:02:38;;;;;;;4.20;2.10;;;12.00;99.90;;;;;;5048788;28;20485;-69
2022/06/21 02:05:07;;;;;;;5.55;1.80;;;11.90;99.90;;;;;;5024685;28;20080;-70
2022/06/21 02:07:39;;;;;;;4.82;2.10;;;11.90;99.90;;;;;;5047743;28;20076;-70
2022/06/21 02:10:11;;;;;;;4.47;1.65;;;11.80;99.90;;;;;;5045043;28;20041;-70
2022/06/21 02:13:15;;;;;;;3.63;1.88;;;11.80;99.90;;;;;;5043287;28;20043;-70
2022/06/21 02:15:53;;;;;;;5.50;1.98;;;11.70;99.90;;;;;;4986096;28;20058;-70
2022/06/21 02:18:20;;;;;;;2.20;1.60;;;11.70;99.90;;;;;;5035349;28;20053;-70
2022/06/21 02:21:31;;;;;;;2.83;1.60;;;11.60;99.90;;;;;;5044773;28;20033;-71
2022/06/21 02:23:57;;;;;;;5.38;2.00;;;11.60;99.90;;;;;;5024461;28;20037;-70
2022/06/21 02:26:24;;;;;;;;;;;11.60;99.90;;;;;;5046531;28;20041;-69
2022/06/21 02:28:49;;;;;;;3.83;1.50;;;11.60;99.90;;;;;;5042863;28;20469;-70
2022/06/21 02:31:15;;;;;;;2.50;1.50;;;11.60;99.90;;;;;;5041839;28;20137;-70
2022/06/21 02:33:42;;;;;;;3.57;2.30;;;11.60;99.90;;;;;;5049806;28;20275;-69
2022/06/21 02:36:14;;;;;;;2.88;1.52;;;11.50;99.90;;;;;;5044008;28;20041;-69
2022/06/21 02:38:56;;;;;;;4.22;1.60;;;11.50;99.90;;;;;;5049756;28;20107;-70
2022/06/21 02:41:31;;;;;;;3.63;1.92;;;11.50;99.90;;;;;;5046905;28;20044;-70
2022/06/21 02:44:09;;;;;;;4.93;2.30;;;11.50;99.90;;;;;;5048747;28;20417;-70
2022/06/21 02:46:38;;;;;;;5.10;2.47;;;11.50;99.90;;;;;;5042736;28;20523;-70
2022/06/21 02:49:22;;;;;;;4.55;2.78;;;11.60;99.90;;;;;;5033867;28;20489;-70
2022/06/21 02:51:59;;;;;;;5.68;2.95;;;11.60;99.90;;;;;;5048154;28;21374;-70
2022/06/21 02:54:25;;;;;;;;;;;11.50;99.90;;;;;;5045614;28;20038;-69
2022/06/21 02:57:14;;;;;;;9.50;3.72;;;11.40;99.90;;;;;;5049413;28;19924;-70
2022/06/21 02:59:42;;;;;;;7.40;3.20;;;11.40;99.90;;;;;;5043366;28;20128;-71
2022/06/21 03:02:20;;;;;;;7.13;3.28;;;11.40;99.90;;;;;;5044200;28;20088;-69
2022/06/21 03:04:51;;;;;;;9.70;3.00;;;11.40;99.90;;;;;;5048143;28;20412;-70
2022/06/21 03:07:22;;;;;;;3.53;1.92;;;11.30;99.90;;;;;;5043799;28;20077;-70
2022/06/21 03:09:48;;;;;;;2.45;1.60;;;11.30;99.90;;;;;;5046843;28;20047;-69
2022/06/21 03:12:22;;;;;;;3.03;1.90;;;11.20;99.90;;;;;;5044673;28;20460;-70
2022/06/21 03:14:48;;;;;;;4.38;2.03;;;11.20;99.90;;;;;;5047364;28;20445;-70
2022/06/21 03:17:17;;;;;;;3.78;2.10;;;11.20;99.90;;;;;;5044437;28;20401;-70
2022/06/21 03:19:49;;;;;;;3.22;2.13;;;11.10;99.90;;;;;;5045395;28;20405;-70
2022/06/21 03:22:19;;;;;;;3.63;1.75;;;11.10;99.90;;;;;;5040916;28;20531;-70
2022/06/21 03:24:46;;;;;;;4.20;1.70;;;11.10;99.90;;;;;;5043806;28;20501;-69
2022/06/21 03:27:36;;;;;;;3.65;1.65;;;11.10;99.90;;;;;;5044407;28;20048;-70
2022/06/21 03:30:03;;;;;;;3.25;1.70;;;11.00;99.90;;;;;;5038116;28;20312;-69
2022/06/21 03:32:33;;;;;;;3.33;1.80;;;11.00;99.90;;;;;;5045403;28;20148;-70
2022/06/21 03:35:00;;;;;;;4.63;2.00;;;11.00;99.90;;;;;;5034232;28;20187;-70
2022/06/21 03:37:26;;;;;;;3.08;1.98;;;11.00;99.90;;;;;;5070743;23;20136;-70
2022/06/21 03:42:41;;;;;;;4.90;2.17;;;11.00;99.90;;;;;;5054547;28;20064;-70
2022/06/21 03:45:31;;;;;;;2.70;1.88;;;11.00;99.90;;;;;;5062128;28;20090;-70
2022/06/21 03:48:20;;;;;;;4.35;2.20;;;11.10;99.90;;;;;;5054998;28;20384;-70
2022/06/21 03:50:56;;;;;;;3.50;2.08;;;11.10;99.90;;;;;;5063929;28;20036;-70
2022/06/21 03:53:31;;;;;;;2.85;1.50;;;11.10;99.90;;;;;;5044437;28;20036;-70
2022/06/21 03:56:05;;;;;;;4.50;1.70;;;11.10;99.90;;;;;;5059689;28;20024;-71
2022/06/21 03:58:49;;;;;;;3.10;1.90;;;11.20;99.90;;;;;;5049911;28;20033;-70
2022/06/21 04:01:22;;;;;;;3.30;2.10;;;11.30;99.90;;;;;;5054255;28;20101;-70
2022/06/21 04:04:05;;;;;;;2.47;1.70;;;11.30;99.90;;;;;;5061573;28;20108;-70
2022/06/21 04:06:41;;;;;;;3.65;1.83;;;11.30;99.90;;;;;;5051248;28;20111;-70
2022/06/21 04:09:27;;;;;;;3.33;1.73;;;11.30;99.90;;;;;;5058723;28;20036;-71
2022/06/21 04:12:11;;;;;;;5.18;2.08;;;11.40;99.90;;;;;;5060443;28;20407;-70
2022/06/21 04:15:06;;;;;;;2.85;1.90;;;11.40;99.90;;;;;;5065615;28;20341;-70
2022/06/21 04:17:44;;;;;;;5.43;2.03;;;11.40;99.90;;;;;;5060912;28;20029;-70
2022/06/21 04:20:22;;;;;;;2.78;1.65;;;11.50;99.90;;;;;;5062194;28;20504;-69
2022/06/21 04:23:06;;;;;;;6.28;1.88;;;11.50;99.90;;;;;;5062183;28;20123;-70
2022/06/21 04:25:49;;;;;;;5.82;2.40;;;11.60;99.90;;;;;;5060920;28;20401;-70
2022/06/21 04:28:20;;;;;;;5.47;2.13;;;11.60;99.90;;;;;;5057386;28;20040;-70
2022/06/21 04:31:13;;;;;;;2.80;1.88;;;11.60;99.90;;;;;;5062604;28;20144;-70
2022/06/21 04:34:08;;;;;;;5.20;2.67;;;11.70;99.90;;;;;;5042141;28;20063;-70
2022/06/21 04:36:43;;;;;;;4.47;2.00;;;11.80;99.90;;;;;;5056878;28;20456;-70
2022/06/21 04:39:14;;;;;;;3.33;2.03;;;11.90;99.90;;;;;;5057167;28;20054;-70
2022/06/21 04:41:57;;;;;;;8.75;2.30;;;11.90;99.90;;;;;;5059538;28;20049;-70
2022/06/21 04:44:31;;;;;;;5.32;2.47;;;12.00;99.90;;;;;;5059920;28;20039;-70
2022/06/21 04:47:12;;;;;;;5.35;2.30;;;12.10;99.90;;;;;;5066466;28;20393;-70
2022/06/21 04:49:54;;;;;;;4.72;1.90;;;12.00;99.90;;;;;;5066953;28;20087;-70
2022/06/21 04:52:34;;;;;;;3.92;2.20;;;12.00;99.90;;;;;;5062978;28;20071;-70
2022/06/21 04:55:03;;;;;;;5.50;2.40;;;12.10;99.90;;;;;;5064054;28;20048;-70
2022/06/21 04:57:30;;;;;;;4.95;2.22;;;12.10;99.90;;;;;;5064327;28;20037;-70
2022/06/21 05:00:10;;;;;;;6.00;2.15;;;12.10;99.90;;;;;;5067334;28;20438;-70
2022/06/21 05:02:59;;;;;;;6.65;2.53;;;12.10;99.90;;;;;;5059984;28;20048;-70
2022/06/21 05:05:27;;;;;;;4.63;2.28;;;12.10;99.90;;;;;;5050377;28;20171;-70
2022/06/21 05:08:16;;;;;;;5.63;2.40;;;12.10;99.90;;;;;;5065506;28;20127;-70
2022/06/21 05:10:46;;;;;;;4.53;2.33;;;12.20;99.90;;;;;;5064105;28;20118;-70
2022/06/21 05:13:15;;;;;;;3.38;2.15;;;12.20;99.90;;;;;;5062194;28;20048;-70
2022/06/21 05:15:41;;;;;;;5.78;2.63;;;12.20;99.90;;;;;;5060194;28;20049;-70
2022/06/21 05:18:19;;;;;;;3.80;2.13;;;12.20;99.90;;;;;;5061957;28;20037;-70
2022/06/21 05:20:57;;;;;;;5.55;2.28;;;12.20;99.90;;;;;;5063637;28;20444;-70
2022/06/21 05:23:24;;;;;;;3.50;2.38;;;12.20;99.90;;;;;;5066754;28;20041;-70
2022/06/21 05:25:51;;;;;;;3.33;2.35;;;12.30;99.90;;;;;;5063450;28;20032;-70
2022/06/21 05:28:19;;;;;;;;;;;12.40;99.90;;;;;;5070877;28;20456;-70
2022/06/21 05:30:56;;;;;;;7.80;2.55;;;12.40;99.90;;;;;;5057931;28;20077;-70
2022/06/21 05:33:33;;;;;;;5.65;3.03;;;12.50;99.90;;;;;;5062051;28;20076;-70
2022/06/21 05:36:05;;;;;;;5.22;2.35;;;12.60;99.90;;;;;;5053931;28;20047;-70
2022/06/21 05:38:35;;;;;;;5.80;2.90;;;12.60;99.90;;;;;;5065985;28;20048;-70
2022/06/21 05:41:29;;;;;;;3.88;2.40;;;12.70;99.90;;;;;;5061595;28;20053;-70
2022/06/21 05:44:02;;;;;;;5.38;2.47;;;12.70;99.90;;;;;;5062469;28;20454;-70
2022/06/21 05:46:32;;;;;;;4.75;2.83;;;12.90;99.90;;;;;;5045071;28;20044;-70
2022/06/21 05:48:59;;;;;;;5.28;2.58;;;12.90;99.90;;;;;;5061154;28;20119;-70
2022/06/21 05:51:32;;;;;;;5.60;2.72;;;13.00;99.90;;;;;;5059589;28;20381;-70
2022/06/21 05:54:09;;;;;;;4.72;2.22;;;13.00;99.90;;;;;;5067246;28;20097;-70
2022/06/21 05:56:36;;;;;;;;;;;13.10;99.90;;;;;;5056119;28;20036;-70
2022/06/21 05:59:05;;;;;;;4.97;2.72;;;13.20;99.90;;;;;;5063227;28;20280;-70
2022/06/21 06:01:49;;;;;;;6.00;2.75;;;13.20;99.90;;;;;;5057841;28;20041;-70
2022/06/21 06:04:33;;;;;;;3.15;2.22;;;13.30;99.90;;;;;;5061597;28;20033;-70
2022/06/21 06:07:01;;;;;;;4.65;2.50;;;13.30;99.90;;;;;;5058141;28;20094;-70
2022/06/21 06:09:39;;;;;;;5.28;2.35;;;13.40;99.90;;;;;;5064829;28;20059;-70
2022/06/21 06:12:18;;;;;;;4.15;2.00;;;13.40;99.90;;;;;;5061090;28;21170;-70
2022/06/21 06:14:59;;;;;;;2.35;1.35;;;13.50;99.90;;;;;;5059650;28;20148;-70
2022/06/21 06:17:52;;;;;;;4.72;1.73;;;13.50;99.90;;;;;;5058145;28;20320;-70
2022/06/21 06:20:33;;;;;;;7.15;1.88;;;13.60;99.90;;;;;;5061783;28;20361;-70
2022/06/21 06:23:20;;;;;;;7.00;2.13;;;13.70;99.90;;;;;;5067101;28;20040;-70
2022/06/21 06:25:51;;;;;;;4.88;1.15;;;13.80;99.90;;;;;;5053516;28;20036;-70
2022/06/21 06:28:30;;;;;;;3.53;1.55;;;13.80;99.90;;;;;;5060417;28;20040;-70
2022/06/21 06:31:24;;;;;;;4.70;1.60;;;13.90;99.90;;;;;;5061520;28;20036;-70
2022/06/21 06:33:55;;;;;;;4.32;1.50;;;13.90;99.90;;;;;;5062462;28;20183;-70
2022/06/21 06:36:26;;;;;;;4.30;1.30;;;13.90;99.90;;;;;;5062284;28;20056;-70
2022/06/21 06:38:53;;;;;;;6.65;1.73;;;14.00;99.90;;;;;;5064026;28;20047;-70
2022/06/21 06:41:46;;;;;;;2.67;1.40;;;14.00;99.90;;;;;;5061758;28;20044;-70
2022/06/21 06:44:12;;;;;;;9.82;1.92;;;14.10;99.90;;;;;;5060589;28;20041;-70
2022/06/21 06:46:43;;;;;;;4.15;1.58;;;14.10;99.90;;;;;;5064772;28;20128;-70
2022/06/21 06:49:20;;;;;;;4.43;1.52;;;14.10;99.90;;;;;;5060669;28;20039;-70
2022/06/21 06:52:04;;;;;;;3.35;1.73;;;14.20;99.90;;;;;;5069289;28;20109;-70
2022/06/21 06:54:40;;;;;;;3.97;1.48;;;14.30;99.90;;;;;;5067814;28;20067;-70
2022/06/21 06:57:26;;;;;;;4.05;1.60;;;14.30;99.90;;;;;;5061737;28;20096;-70
2022/06/21 06:59:55;;;;;;;6.88;1.50;;;14.40;99.90;;;;;;5057214;28;20048;-70
2022/06/21 07:02:24;;;;;;;4.43;1.63;;;14.50;99.90;;;;;;5061082;28;20507;-69
2022/06/21 07:05:19;;;;;;;4.50;2.00;;;14.50;99.90;;;;;;5056394;28;20036;-70
2022/06/21 07:07:55;;;;;;;3.38;1.67;;;14.60;99.90;;;;;;5055692;28;20402;-70
2022/06/21 07:10:24;;;;;;;6.65;2.03;;;14.60;99.90;;;;;;5062043;28;20066;-69
2022/06/21 07:12:51;;;;;;;6.28;1.70;;;14.60;99.90;;;;;;5062492;28;20566;-69
2022/06/21 07:15:21;;;;;;;4.18;1.30;;;14.60;99.90;;;;;;5051827;28;20500;-69
2022/06/21 07:17:47;;;;;;;3.88;1.60;;;14.60;99.90;;;;;;5057200;28;20056;-69
2022/06/21 07:20:17;;;;;;;3.83;1.53;;;14.70;99.90;;;;;;5058940;28;20036;-69
2022/06/21 07:22:44;;;;;;;4.88;1.65;;;14.80;99.90;;;;;;5063283;28;20451;-70
2022/06/21 07:25:19;;;;;;;5.40;2.58;;;14.90;99.90;;;;;;5060769;28;20508;-70
2022/06/21 07:27:49;;;;;;;4.15;1.58;;;14.90;99.90;;;;;;5066897;28;20036;-70
2022/06/21 07:30:21;;;;;;;2.15;1.50;;;15.00;99.90;;;;;;5060042;28;20086;-70
2022/06/21 07:32:53;;;;;;;3.13;1.60;;;15.00;99.90;;;;;;5064305;28;20110;-69
2022/06/21 07:35:35;;;;;;;5.72;1.65;;;15.10;99.90;;;;;;5050464;28;20044;-70
2022/06/21 07:38:15;;;;;;;2.67;1.30;;;15.20;99.90;;;;;;5065658;28;20049;-69
2022/06/21 07:40:48;;;;;;;5.22;2.03;;;15.30;99.90;;;;;;5055191;28;20121;-70
2022/06/21 07:43:22;;;;;;;4.05;1.75;;;15.40;99.90;;;;;;5061028;28;20127;-70
2022/06/21 07:46:00;;;;;;;2.67;1.60;;;15.50;99.90;;;;;;5054564;28;20036;-70
2022/06/21 07:48:36;;;;;;;4.07;1.55;;;15.50;99.90;;;;;;5056863;28;20490;-69
2022/06/21 07:51:22;;;;;;;3.10;1.17;;;15.60;99.90;;;;;;5056881;28;20040;-70
2022/06/21 07:54:10;;;;;;;3.35;1.50;;;15.60;99.90;;;;;;5054510;28;20068;-70
2022/06/21 07:56:43;;;;;;;2.22;1.17;;;15.80;99.90;;;;;;5059029;28;20535;-70
2022/06/21 07:59:35;;;;;;;1.65;1.00;;;15.80;99.90;;;;;;5059972;28;20064;-69
2022/06/21 08:07:58;;;;;;;5.13;1.63;;;15.70;99.90;;;;;;5069306;28;20359;-70
2022/06/21 08:10:38;;;;;;;2.08;1.05;;;15.80;99.90;;;;;;5052327;28;20098;-70
2022/06/21 08:13:04;;;;;;;3.10;1.17;;;15.80;99.90;;;;;;5057777;28;20033;-70
2022/06/21 08:15:41;;;;;;;2.50;1.30;;;15.80;99.90;;;;;;5061369;28;20127;-70
2022/06/21 08:18:18;;;;;;;;;;;15.80;99.90;;;;;;5060040;28;20143;-69
2022/06/21 08:20:51;;;;;;;5.40;1.20;;;15.90;99.90;;;;;;5047763;28;19993;-70
2022/06/21 08:23:39;;;;;;;1.70;1.17;;;15.90;99.90;;;;;;5063708;28;20039;-70
2022/06/21 08:26:10;;;;;;;3.63;1.13;;;16.00;99.90;;;;;;5055436;28;20595;-70
2022/06/21 08:29:07;;;;;;;2.88;1.10;;;16.20;99.90;;;;;;5049370;28;20064;-70
2022/06/21 08:31:39;;;;;;;3.90;1.45;;;16.30;99.90;;;;;;5057234;28;20408;-70
2022/06/21 08:34:23;;;;;;;6.93;1.40;;;16.40;99.90;;;;;;5060749;28;20040;-70
2022/06/21 08:36:55;;;;;;;3.72;1.50;;;16.40;99.90;;;;;;5060919;28;20283;-70
2022/06/21 08:39:39;;;;;;;6.50;1.80;;;16.50;99.90;;;;;;5057474;28;20119;-70
2022/06/21 08:42:42;;;;;;;3.45;1.17;;;16.40;99.90;;;;;;5062266;28;20409;-70
2022/06/21 08:48:05;;;;;;;3.92;1.20;;;16.40;99.90;;;;;;5054485;28;20430;-70
2022/06/21 08:50:59;;;;;;;5.63;1.75;;;16.50;99.90;;;;;;5064558;28;20050;-70
2022/06/21 08:53:28;;;;;;;2.65;1.15;;;16.60;99.90;;;;;;5057006;28;20043;-70
2022/06/21 08:56:12;;;;;;;5.05;1.35;;;16.70;99.90;;;;;;5060701;28;20037;-70
2022/06/21 08:59:28;;;;;;;2.55;1.20;;;16.70;99.90;;;;;;5059344;28;20040;-70
2022/06/21 09:02:19;;;;;;;3.10;1.52;;;16.80;99.90;;;;;;5048791;28;20055;-70
2022/06/21 09:05:05;;;;;;;3.15;1.42;;;16.90;99.90;;;;;;5057863;28;20175;-70
2022/06/21 09:07:31;;;;;;;2.90;1.47;;;17.00;99.90;;;;;;5064339;28;20112;-70
2022/06/21 09:10:06;;;;;;;3.30;1.47;;;17.20;99.90;;;;;;5064311;28;20043;-70
2022/06/21 09:12:40;;;;;;;4.93;1.45;;;17.20;99.90;;;;;;5058874;28;20343;-70
2022/06/21 09:15:27;;;;;;;3.45;1.42;;;17.30;99.90;;;;;;5063868;28;20079;-70
2022/06/21 09:17:56;;;;;;;8.60;1.65;;;17.30;99.90;;;;;;5063834;28;20527;-70
2022/06/21 09:20:24;;;;;;;2.78;1.33;;;17.30;99.90;;;;;;5063754;28;20132;-70
2022/06/21 09:23:15;;;;;;;4.65;1.48;;;17.20;99.90;;;;;;5064242;28;20040;-70
2022/06/21 09:26:04;;;;;;;3.83;1.20;;;17.10;99.90;;;;;;5064210;28;20044;-70
2022/06/21 09:28:55;;;;;;;2.80;1.27;;;17.20;99.90;;;;;;5068019;28;20032;-70
2022/06/21 09:32:01;;;;;;;2.45;1.05;;;17.30;99.90;;;;;;5061872;28;20036;-70
2022/06/21 09:34:42;;;;;;;2.60;1.40;;;17.40;99.90;;;;;;5059645;28;20080;-70
2022/06/21 09:37:17;;;;;;;2.58;1.58;;;17.50;99.90;;;;;;5062958;28;20055;-70
2022/06/21 09:39:55;;;;;;;4.80;1.88;;;17.40;99.90;;;;;;5063335;28;20049;-70
2022/06/21 09:42:26;;;;;;;2.75;1.42;;;17.30;99.90;;;;;;5064778;28;20635;-70
2022/06/21 09:45:16;;;;;;;5.05;1.40;;;17.30;99.90;;;;;;5065740;28;20037;-70
2022/06/21 09:48:04;;;;;;;6.30;1.80;;;17.40;99.90;;;;;;5078783;28;20052;-70
2022/06/21 09:50:56;;;;;;;4.13;1.40;;;17.30;99.90;;;;;;5060401;28;20029;-70
2022/06/21 09:53:33;;;;;;;5.95;2.28;;;17.40;99.90;;;;;;5062775;28;20048;-71
2022/06/21 09:56:32;;;;;;;3.00;1.63;;;17.60;99.90;;;;;;5057744;28;20170;-70
2022/06/21 09:59:19;;;;;;;2.55;1.20;;;17.70;99.90;;;;;;5061887;28;20118;-72
2022/06/21 10:02:09;;;;;;;3.53;1.40;;;18.00;99.90;;;;;;5059759;28;20595;-70
2022/06/21 10:04:46;;;;;;;3.50;1.42;;;18.20;99.90;;;;;;5059556;28;20485;-70
2022/06/21 10:07:26;;;;;;;2.47;1.45;;;18.30;99.90;;;;;;5058323;28;20033;-71
2022/06/21 10:09:57;;;;;;;2.83;1.08;;;18.30;99.90;;;;;;5065918;28;20489;-70
2022/06/21 10:12:30;;;;;;;5.38;1.60;;;18.50;99.90;;;;;;5068605;28;20477;-71
2022/06/21 10:15:33;;;;;;;3.60;1.23;;;18.60;99.90;;;;;;5062459;28;20051;-71
2022/06/21 10:18:12;;;;;;;3.88;1.33;;;18.50;99.90;;;;;;5057568;28;20056;-71
2022/06/21 10:21:02;;;;;;;2.85;1.00;;;18.50;99.90;;;;;;5063347;28;20114;-71
2022/06/21 10:23:31;;;;;;;4.00;1.50;;;18.60;99.90;;;;;;5059871;28;20414;-71
2022/06/21 10:26:28;;;;;;;1.80;1.17;;;18.80;99.90;;;;;;5057262;28;20052;-71
2022/06/21 10:29:14;;;;;;;4.60;1.35;;;18.90;99.90;;;;;;5065747;28;20123;-71
2022/06/21 10:31:47;;;;;;;2.72;0.98;;;19.00;99.90;;;;;;5054662;28;20075;-71
2022/06/21 10:34:29;;;;;;;2.08;1.00;;;19.10;99.90;;;;;;5054884;28;20114;-70
2022/06/21 10:37:19;;;;;;;1.70;0.93;;;19.20;99.90;;;;;;5061754;28;20064;-71
2022/06/21 10:40:01;;;;;;;2.97;0.80;;;19.30;99.90;;;;;;5040682;28;20054;-71
2022/06/21 10:42:49;;;;;;;4.45;1.10;;;19.40;99.90;;;;;;5062877;28;20127;-70
2022/06/21 10:45:27;;;;;;;3.75;1.08;;;19.60;99.90;;;;;;5032358;28;20425;-69
2022/06/21 10:48:15;;;;;;;2.45;1.27;;;19.70;99.90;;;;;;5061188;28;20133;-69
2022/06/21 10:50:50;;;;;;;2.88;1.30;;;19.70;99.90;;;;;;5065425;28;20072;-70
2022/06/21 10:53:34;;;;;;;3.03;1.20;;;19.70;99.90;;;;;;5064391;28;20071;-69
2022/06/21 10:59:15;;;;;;;2.72;1.17;;;19.60;99.90;;;;;;5055123;28;20040;-70
2022/06/21 11:01:50;;;;;;;3.90;1.55;;;19.80;99.90;;;;;;5062156;28;20070;-69
2022/06/21 11:04:28;;;;;;;1.92;1.20;;;19.90;99.90;;;;;;5062583;28;20412;-70
2022/06/21 11:07:32;;;;;;;2.63;1.25;;;19.90;99.90;;;;;;5053653;28;20072;-70
2022/06/21 11:10:05;;;;;;;2.95;0.90;;;20.00;99.90;;;;;;5056325;28;20033;-70
2022/06/21 11:12:56;;;;;;;2.58;0.90;;;20.10;99.90;;;;;;5059654;28;20205;-71
2022/06/21 11:15:40;;;;;;;4.25;1.02;;;20.20;99.90;;;;;;5057912;28;20502;-71
2022/06/21 11:18:14;;;;;;;1.73;0.77;;;20.20;99.90;;;;;;5059311;28;20055;-70
2022/06/21 11:20:53;;;;;;;2.35;1.00;;;20.10;99.90;;;;;;5064807;28;20132;-69
2022/06/21 11:23:38;;;;;;;2.88;1.10;;;20.20;99.90;;;;;;5058633;28;21028;-70
2022/06/21 11:26:23;;;;;;;2.50;0.88;;;20.10;99.90;;;;;;5060421;28;20036;-70
2022/06/21 11:29:12;;;;;;;2.28;0.95;;;20.20;99.90;;;;;;5066512;28;20132;-70
2022/06/21 11:31:51;;;;;;;4.28;0.90;;;20.30;99.90;;;;;;5061839;28;20048;-69
2022/06/21 11:34:22;;;;;;;4.07;1.13;;;20.30;99.90;;;;;;5056436;28;20063;-69
2022/06/21 11:37:05;;;;;;;1.70;0.80;;;20.40;99.80;;;;;;5060245;28;20214;-69
2022/06/21 11:39:43;;;;;;;2.35;0.60;;;20.40;99.90;;;;;;5054889;28;20404;-69
2022/06/21 11:42:30;;;;;;;1.60;0.88;;;20.50;99.90;;;;;;5052775;28;20524;-69
2022/06/21 11:45:05;;;;;;;1.05;0.65;;;20.60;98.90;;;;;;5060950;28;20045;-70
2022/06/21 11:47:48;;;;;;;3.17;0.70;;;20.60;99.90;;;;;;5057531;28;20225;-69
2022/06/21 11:50:23;;;;;;;2.00;0.90;;;20.70;93.60;;;;;;5058511;28;20048;-69
2022/06/21 11:53:01;;;;;;;1.67;0.98;;;20.70;92.90;;;;;;5065453;28;20052;-69
2022/06/21 11:55:45;;;;;;;1.42;0.80;;;20.70;96.90;;;;;;5059631;28;20047;-69
2022/06/21 11:58:38;;;;;;;2.15;0.88;;;20.80;97.50;;;;;;5059607;28;20047;-69
2022/06/21 12:01:25;;;;;;;2.55;0.85;;;20.80;99.90;;;;;;5062525;28;20048;-69
2022/06/21 12:04:10;;;;;;;2.55;0.90;;;20.90;99.90;;;;;;5065659;28;20047;-69
2022/06/21 12:06:42;;;;;;;2.30;0.90;;;21.00;99.90;;;;;;5051302;28;20033;-69
2022/06/21 12:09:49;;;;;;;3.47;1.33;;;21.20;99.90;;;;;;5059135;28;20060;-69
2022/06/21 12:12:40;;;;;;;3.80;1.00;;;21.10;98.20;;;;;;5053545;28;20047;-69
2022/06/21 12:15:18;;;;;;;2.53;1.08;;;21.20;99.60;;;;;;5059127;28;20102;-69
2022/06/21 12:17:59;;;;;;;1.73;0.90;;;21.40;99.90;;;;;;5064900;28;20127;-69
2022/06/21 12:20:53;;;;;;;2.72;0.90;;;21.50;99.70;;;;;;5046006;28;20071;-69
2022/06/21 12:23:41;;;;;;;3.70;1.05;;;21.60;99.90;;;;;;5060064;28;20106;-69
2022/06/21 12:26:11;;;;;;;3.13;1.35;;;21.80;99.60;;;;;;5042210;28;20044;-69
2022/06/21 12:28:39;;;;;;;2.80;1.23;;;21.90;98.90;;;;;;5065535;28;20062;-69
2022/06/21 12:31:20;;;;;;;3.30;0.90;;;21.90;97.80;;;;;;5060781;28;20032;-69
2022/06/21 12:33:52;;;;;;;4.10;1.00;;;22.10;97.80;;;;;;5066840;28;20358;-69
2022/06/21 12:36:31;;;;;;;3.85;1.63;;;22.10;96.40;;;;;;5056805;28;20175;-70
2022/06/21 12:39:10;;;;;;;2.83;1.10;;;21.90;91.20;;;;;;5052938;28;20021;-69
2022/06/21 12:41:58;;;;;;;3.83;1.15;;;22.00;97.50;;;;;;5058319;28;20052;-69
2022/06/21 12:44:46;;;;;;;2.78;1.20;;;22.10;94.90;;;;;;5065344;28;20379;-69
2022/06/21 12:47:22;;;;;;;3.95;1.00;;;22.10;96.90;;;;;;5057450;28;20524;-69
2022/06/21 12:50:21;;;;;;;3.25;1.27;;;22.30;98.50;;;;;;5062200;28;20060;-68
2022/06/21 12:53:11;;;;;;;2.13;1.30;;;22.40;97.00;;;;;;5062112;28;20048;-68
2022/06/21 12:56:14;;;;;;;3.38;1.02;;;22.50;96.40;;;;;;5061950;28;20485;-69
2022/06/21 12:59:02;;;;;;;2.08;1.13;;;22.40;84.00;;;;;;5057519;28;20185;-68
2022/06/21 13:01:36;;;;;;;4.47;1.17;;;22.30;92.10;;;;;;5060096;28;20463;-68
2022/06/21 13:04:17;;;;;;;1.63;0.70;;;22.20;95.00;;;;;;5061369;28;20036;-68
2022/06/21 13:06:49;;;;;;;3.97;1.40;;;22.10;96.60;;;;;;5057379;28;20048;-71
2022/06/21 13:09:33;;;;;;;3.58;0.90;;;22.10;97.00;;;;;;5061269;28;20040;-71
2022/06/21 13:12:28;;;;;;;3.53;1.13;;;22.10;96.30;;;;;;5065652;28;20067;-69
2022/06/21 13:15:23;;;;;;;3.58;1.35;;;22.00;95.90;;;;;;5061458;28;20520;-69
2022/06/21 13:18:17;;;;;;;2.22;1.00;;;21.80;96.20;;;;;;5055736;28;20106;-69
2022/06/21 13:20:49;;;;;;;2.53;1.10;;;21.80;96.70;;;;;;5063829;28;20060;-69
2022/06/21 13:23:26;;;;;;;1.92;1.00;;;21.80;95.30;;;;;;5071101;28;20464;-69
2022/06/21 13:26:18;;;;;;;4.40;1.10;;;21.60;94.20;;;;;;5058648;28;20036;-69
2022/06/21 13:29:04;;;;;;;3.63;0.98;;;21.60;96.80;;;;;;5053417;28;20036;-69
2022/06/21 13:31:53;;;;;;;2.72;0.80;;;21.60;95.00;;;;;;5063957;28;20136;-69
2022/06/21 13:34:36;;;;;;;2.17;0.90;;;21.60;91.00;;;;;;5063409;28;20116;-69
2022/06/21 13:37:25;;;;;;;1.92;0.75;;;21.60;96.30;;;;;;5055008;28;20039;-69
2022/06/21 13:40:16;;;;;;;2.97;1.00;;;21.70;96.20;;;;;;5040378;28;20072;-70
2022/06/21 13:42:55;;;;;;;3.92;1.63;;;21.70;93.20;;;;;;5057982;28;20370;-69
2022/06/21 13:45:40;;;;;;;5.97;1.30;;;21.70;97.00;;;;;;5057066;28;20096;-69
2022/06/21 13:48:25;;;;;;;2.25;0.90;;;21.70;96.50;;;;;;5058557;28;20036;-69
2022/06/21 13:51:14;;;;;;;2.50;1.10;;;21.80;98.10;;;;;;5064558;28;20041;-69
2022/06/21 13:53:56;;;;;;;5.78;1.15;;;21.90;91.60;;;;;;5043458;28;20072;-69
2022/06/21 13:56:27;;;;;;;2.05;0.80;;;21.90;94.10;;;;;;5066345;28;20039;-69
2022/06/21 13:59:11;;;;;;;4.35;1.00;;;22.00;95.50;;;;;;5059777;28;20116;-69